Terminal Aerodrome Forecast
Issued by NWS

Home | Current Version | Previous Version | Text Only | Print | Product List | Glossary On
Versions: 1 2 3 4 5 6 7 8 9 10 11 12 13 14 15
000
FTUS43 KUNR 282300
TAFGCC
TAF
KGCC 282320Z 2900/2924 34008KT P6SM SKC
     FM290300 22005KT P6SM SKC
     FM291000 33015KT P6SM SCT080 BKN150
     FM291500 33013KT P6SM SCT250=

USA.gov is the U.S. government's official web portal to all federal, state and local government web resources and services.